Time;durP1;ratioP1;P1;durP2;ratioP2;P2;SDS_P1;SDS_P2;PMS_P1;PMS_P2;Temp;Humidity;BMP_temperature;BMP_pressure;BME280_temperature;BME280_humidity;BME280_pressure;Samples;Min_cycle;Max_cycle;Signal;HPM_P1;HPM_P2
2023/04/07 00:01:55;;;;;;;40.33;23.63;;;7.80;99.90;;;;;;4986790;28;20088;-67
2023/04/07 00:04:20;;;;;;;38.33;22.48;;;7.70;99.90;;;;;;4994409;28;20175;-67
2023/04/07 00:06:46;;;;;;;36.60;21.02;;;7.80;99.90;;;;;;4971025;28;20129;-67
2023/04/07 00:09:11;;;;;;;39.55;24.17;;;7.70;99.90;;;;;;4985754;28;20129;-67
2023/04/07 00:11:37;;;;;;;43.97;24.13;;;7.70;99.90;;;;;;4993937;28;20501;-67
2023/04/07 00:14:03;;;;;;;45.17;24.67;;;7.70;99.90;;;;;;4986665;28;20085;-67
2023/04/07 00:16:28;;;;;;;37.60;22.83;;;7.70;99.90;;;;;;4984098;28;20042;-67
2023/04/07 00:18:54;;;;;;;38.20;23.65;;;7.70;99.90;;;;;;4993760;28;20117;-67
2023/04/07 00:21:20;;;;;;;41.67;24.42;;;7.70;99.90;;;;;;4976888;28;20093;-67
2023/04/07 00:23:46;;;;;;;45.97;25.77;;;7.70;99.90;;;;;;4984739;28;20037;-66
2023/04/07 00:26:12;;;;;;;46.78;25.10;;;7.70;99.90;;;;;;4985348;28;20664;-67
2023/04/07 00:28:37;;;;;;;45.03;24.92;;;7.70;99.90;;;;;;4983184;28;20042;-66
2023/04/07 00:31:03;;;;;;;47.83;24.92;;;7.70;99.90;;;;;;4982695;28;20117;-67
2023/04/07 00:33:28;;;;;;;44.08;24.75;;;7.70;99.90;;;;;;4993885;28;20046;-67
2023/04/07 00:35:56;;;;;;;44.80;24.52;;;7.70;99.90;;;;;;4976460;28;20089;-66
2023/04/07 00:38:22;;;;;;;46.45;25.00;;;7.70;99.90;;;;;;4969356;28;20520;-66
2023/04/07 00:40:47;;;;;;;45.08;24.30;;;7.60;99.90;;;;;;4986686;28;20042;-66
2023/04/07 00:43:13;;;;;;;42.10;24.65;;;7.70;99.90;;;;;;4976346;28;20042;-66
2023/04/07 00:45:38;;;;;;;44.53;24.40;;;7.70;99.90;;;;;;4987714;28;20113;-66
2023/04/07 00:48:04;;;;;;;44.30;24.23;;;7.70;99.90;;;;;;4982015;28;20122;-66
2023/04/07 00:50:30;;;;;;;38.92;23.67;;;7.70;99.90;;;;;;4992866;28;20070;-67
2023/04/07 00:52:56;;;;;;;41.03;23.85;;;7.70;99.90;;;;;;4967213;28;20468;-66
2023/04/07 00:55:22;;;;;;;44.90;25.17;;;7.70;99.90;;;;;;4989583;28;20050;-66
2023/04/07 00:57:47;;;;;;;41.28;24.25;;;7.70;99.90;;;;;;4993234;28;20041;-66
2023/04/07 01:00:14;;;;;;;46.33;25.35;;;7.70;99.90;;;;;;4993132;28;20409;-66
2023/04/07 01:02:46;;;;;;;49.15;25.55;;;7.70;99.90;;;;;;4980026;28;20042;-66
2023/04/07 01:05:35;;;;;;;45.53;24.67;;;7.60;99.90;;;;;;4989464;28;20507;-66
2023/04/07 01:08:23;;;;;;;45.80;25.45;;;7.70;99.90;;;;;;4976158;28;20054;-66
2023/04/07 01:11:30;;;;;;;46.83;24.38;;;7.70;99.90;;;;;;4984042;28;20034;-66
2023/04/07 01:13:57;;;;;;;40.90;23.55;;;7.70;99.90;;;;;;4977731;28;20109;-66
2023/04/07 01:16:29;;;;;;;41.40;23.90;;;7.70;99.90;;;;;;4971153;28;20053;-67
2023/04/07 01:19:00;;;;;;;45.88;24.15;;;7.70;99.90;;;;;;4992490;28;20046;-66
2023/04/07 01:21:27;;;;;;;41.88;23.25;;;7.70;99.90;;;;;;4970298;28;20047;-65
2023/04/07 01:24:25;;;;;;;45.53;25.33;;;7.70;99.90;;;;;;4986258;28;20046;-67
2023/04/07 01:26:51;;;;;;;44.05;23.95;;;7.70;99.90;;;;;;4975615;28;20481;-66
2023/04/07 01:29:36;;;;;;;46.15;25.05;;;7.60;99.90;;;;;;4990028;28;20046;-66
2023/04/07 01:32:05;;;;;;;45.70;23.80;;;7.70;99.90;;;;;;4958158;28;20042;-66
2023/04/07 01:34:31;;;;;;;47.95;24.85;;;7.70;99.90;;;;;;4973819;28;20050;-66
2023/04/07 01:37:00;;;;;;;46.90;24.77;;;7.70;99.90;;;;;;4975442;28;20046;-66
2023/04/07 01:39:27;;;;;;;46.67;24.40;;;7.60;99.90;;;;;;4970641;28;20121;-66
2023/04/07 01:41:54;;;;;;;44.80;23.50;;;7.60;99.90;;;;;;4985906;28;20030;-66
2023/04/07 01:44:20;;;;;;;48.03;24.48;;;7.70;99.90;;;;;;4992576;28;20038;-67
2023/04/07 01:46:47;;;;;;;51.83;24.95;;;7.60;99.90;;;;;;4981973;28;20072;-67
2023/04/07 01:49:13;;;;;;;47.10;24.17;;;7.70;99.90;;;;;;4980963;28;20077;-66
2023/04/07 01:51:40;;;;;;;49.70;25.42;;;7.60;99.90;;;;;;4991454;28;20026;-67
2023/04/07 01:54:06;;;;;;;43.75;23.70;;;7.60;99.90;;;;;;4992542;28;20398;-67
2023/04/07 01:56:32;;;;;;;43.15;23.80;;;7.70;99.90;;;;;;4964682;28;20054;-66
2023/04/07 01:58:58;;;;;;;46.60;24.05;;;7.70;99.90;;;;;;4991565;28;20045;-66
2023/04/07 02:01:23;;;;;;;41.42;23.80;;;7.70;99.90;;;;;;4991583;28;20046;-66
2023/04/07 02:04:14;;;;;;;42.17;23.48;;;7.70;99.90;;;;;;4983386;28;20043;-65
2023/04/07 02:07:03;;;;;;;48.22;24.17;;;7.70;99.90;;;;;;4958749;28;20133;-67
2023/04/07 02:09:31;;;;;;;43.45;23.67;;;7.70;99.90;;;;;;4989992;28;20474;-67
2023/04/07 02:12:00;;;;;;;41.97;22.88;;;7.70;99.90;;;;;;4992391;28;20053;-69
2023/04/07 02:14:27;;;;;;;41.00;22.92;;;7.70;99.90;;;;;;4981452;28;20064;-66
2023/04/07 02:16:53;;;;;;;42.17;23.60;;;7.70;99.90;;;;;;4991585;28;20034;-67
2023/04/07 02:19:19;;;;;;;45.35;22.88;;;7.70;99.90;;;;;;4991087;28;20043;-66
2023/04/07 02:21:45;;;;;;;42.17;23.40;;;7.70;99.90;;;;;;4981058;28;20113;-67
2023/04/07 02:24:11;;;;;;;41.03;22.85;;;7.70;99.90;;;;;;4955491;28;20755;-66
2023/04/07 02:26:37;;;;;;;43.67;23.13;;;7.70;99.90;;;;;;4973652;28;20081;-66
2023/04/07 02:29:03;;;;;;;40.05;22.92;;;7.70;99.90;;;;;;4974293;28;20034;-66
2023/04/07 02:31:29;;;;;;;37.88;21.63;;;7.70;99.90;;;;;;4986051;28;20038;-67
2023/04/07 02:33:55;;;;;;;43.75;23.65;;;7.70;99.90;;;;;;4982972;28;20512;-67
2023/04/07 02:36:20;;;;;;;40.03;23.23;;;7.70;99.90;;;;;;4974026;28;20078;-66
2023/04/07 02:38:46;;;;;;;45.35;23.85;;;7.70;99.90;;;;;;4984861;28;20035;-65
2023/04/07 02:41:12;;;;;;;39.25;22.67;;;7.70;99.90;;;;;;4985463;28;20046;-67
2023/04/07 02:43:37;;;;;;;38.28;22.25;;;7.70;99.90;;;;;;4991070;28;20496;-67
2023/04/07 02:46:03;;;;;;;43.90;23.60;;;7.70;99.90;;;;;;4991817;28;20638;-66
2023/04/07 02:48:29;;;;;;;42.75;23.50;;;7.70;99.90;;;;;;4979798;28;20034;-66
2023/04/07 02:50:54;;;;;;;40.28;23.05;;;7.70;99.90;;;;;;4990040;28;20042;-66
2023/04/07 02:53:20;;;;;;;39.00;22.67;;;7.70;99.90;;;;;;4973887;28;20119;-67
2023/04/07 02:55:46;;;;;;;43.40;23.63;;;7.70;99.90;;;;;;4983173;28;20034;-66
2023/04/07 02:58:11;;;;;;;42.67;24.15;;;7.70;99.90;;;;;;4987516;28;20042;-67
2023/04/07 03:00:37;;;;;;;41.30;23.00;;;7.70;99.90;;;;;;4991468;28;20078;-67
2023/04/07 03:03:02;;;;;;;46.60;24.00;;;7.80;99.90;;;;;;4987485;28;20037;-67
2023/04/07 03:05:28;;;;;;;43.30;24.67;;;7.80;99.90;;;;;;4980367;28;20048;-66
2023/04/07 03:07:53;;;;;;;44.17;24.38;;;7.80;99.90;;;;;;4991787;28;20038;-66
2023/04/07 03:10:19;;;;;;;40.78;24.02;;;7.80;99.90;;;;;;4992086;28;20133;-66
2023/04/07 03:12:44;;;;;;;44.53;25.15;;;7.80;99.90;;;;;;4973270;28;20062;-66
2023/04/07 03:15:10;;;;;;;41.47;24.35;;;7.70;99.90;;;;;;4980264;28;20120;-66
2023/04/07 03:17:36;;;;;;;49.85;25.08;;;7.80;99.90;;;;;;4991253;28;20128;-66
2023/04/07 03:20:01;;;;;;;47.60;25.20;;;7.80;99.90;;;;;;4992301;28;20042;-66
2023/04/07 03:22:27;;;;;;;46.13;24.45;;;7.80;99.90;;;;;;4981305;28;20042;-66
2023/04/07 03:24:52;;;;;;;46.97;25.30;;;7.80;99.90;;;;;;4970934;28;20035;-66
2023/04/07 03:27:19;;;;;;;44.15;24.52;;;7.80;99.90;;;;;;4991640;28;20035;-66
2023/04/07 03:29:45;;;;;;;42.42;24.20;;;7.80;99.90;;;;;;4979216;28;20047;-66
2023/04/07 03:32:11;;;;;;;42.30;23.38;;;7.80;99.90;;;;;;4990536;28;20099;-67
2023/04/07 03:34:37;;;;;;;40.22;23.70;;;7.80;99.90;;;;;;4991675;28;20540;-67
2023/04/07 03:37:02;;;;;;;39.53;23.05;;;7.80;99.90;;;;;;4963480;28;20043;-67
2023/04/07 03:39:28;;;;;;;39.10;23.10;;;7.80;99.90;;;;;;4986357;28;20046;-67
2023/04/07 03:41:53;;;;;;;40.53;23.40;;;7.80;99.90;;;;;;4991674;28;20038;-67
2023/04/07 03:44:19;;;;;;;39.80;22.95;;;7.80;99.90;;;;;;4988336;28;20041;-66
2023/04/07 03:46:45;;;;;;;36.90;21.58;;;7.80;99.90;;;;;;4985429;28;20122;-66
2023/04/07 03:49:11;;;;;;;40.90;22.67;;;7.80;99.90;;;;;;4991089;28;20080;-66
2023/04/07 03:51:37;;;;;;;35.72;21.55;;;7.80;99.90;;;;;;4991351;28;20069;-67
2023/04/07 03:54:02;;;;;;;37.65;22.80;;;7.70;99.90;;;;;;4985547;28;20042;-67
2023/04/07 03:56:28;;;;;;;41.72;22.60;;;7.70;99.90;;;;;;4983381;28;20049;-67
2023/04/07 03:58:54;;;;;;;41.63;23.52;;;7.70;99.90;;;;;;4973113;28;20042;-67
2023/04/07 04:01:20;;;;;;;40.00;22.65;;;7.70;99.90;;;;;;4973337;28;20070;-64
2023/04/07 04:03:46;;;;;;;44.17;24.33;;;7.70;99.90;;;;;;4973132;28;20507;-67
2023/04/07 04:06:11;;;;;;;42.10;22.98;;;7.70;99.90;;;;;;4987683;28;20493;-66
2023/04/07 04:08:37;;;;;;;44.67;24.58;;;7.70;99.90;;;;;;4991121;28;20034;-66
2023/04/07 04:11:02;;;;;;;39.70;23.35;;;7.70;99.90;;;;;;4981300;28;20049;-66
2023/04/07 04:13:28;;;;;;;41.05;23.58;;;7.70;99.90;;;;;;4987639;28;20038;-66
2023/04/07 04:15:53;;;;;;;41.63;24.40;;;7.70;99.90;;;;;;4991111;28;20070;-66
2023/04/07 04:18:19;;;;;;;42.67;23.23;;;7.70;99.90;;;;;;4969185;28;20136;-66
2023/04/07 04:20:46;;;;;;;40.92;23.98;;;7.70;99.90;;;;;;4964746;28;20429;-66
2023/04/07 04:23:12;;;;;;;46.00;24.15;;;7.70;99.90;;;;;;4991296;28;20042;-66
2023/04/07 04:25:39;;;;;;;44.95;25.05;;;7.70;99.90;;;;;;4992767;28;20042;-66
2023/04/07 04:28:05;;;;;;;42.75;24.65;;;7.70;99.90;;;;;;4971939;28;20512;-66
2023/04/07 04:30:31;;;;;;;43.40;23.90;;;7.70;99.90;;;;;;4985292;28;20046;-66
2023/04/07 04:32:56;;;;;;;42.05;24.10;;;7.70;99.90;;;;;;4976766;28;20058;-66
2023/04/07 04:35:22;;;;;;;43.30;24.17;;;7.70;99.90;;;;;;4991087;28;20046;-66
2023/04/07 04:37:47;;;;;;;45.10;24.60;;;7.70;99.90;;;;;;4989985;28;20030;-67
2023/04/07 04:40:13;;;;;;;43.53;23.85;;;7.70;99.90;;;;;;4976892;28;20054;-67
2023/04/07 04:42:39;;;;;;;43.83;24.42;;;7.70;99.90;;;;;;4970305;28;20126;-66
2023/04/07 04:45:05;;;;;;;40.92;23.88;;;7.60;99.90;;;;;;4982714;28;20126;-66
2023/04/07 04:47:31;;;;;;;40.58;22.83;;;7.60;99.90;;;;;;4994156;28;20046;-67
2023/04/07 04:49:56;;;;;;;42.35;23.13;;;7.60;99.90;;;;;;4994579;28;20093;-65
2023/04/07 04:52:22;;;;;;;42.55;23.20;;;7.60;99.90;;;;;;4980496;28;20038;-67
2023/04/07 04:54:47;;;;;;;42.17;23.20;;;7.60;99.90;;;;;;4963487;28;20077;-66
2023/04/07 04:57:13;;;;;;;39.15;23.25;;;7.60;99.90;;;;;;4976237;28;20440;-65
2023/04/07 04:59:38;;;;;;;41.80;22.70;;;7.60;99.90;;;;;;4994079;28;20128;-67
2023/04/07 05:02:04;;;;;;;43.30;24.50;;;7.60;99.90;;;;;;4986094;28;20168;-67
2023/04/07 05:04:30;;;;;;;45.40;24.17;;;7.60;99.90;;;;;;4961017;28;20038;-67
2023/04/07 05:06:56;;;;;;;44.30;24.10;;;7.60;99.90;;;;;;4976490;28;20034;-66
2023/04/07 05:09:21;;;;;;;39.47;23.48;;;7.60;99.90;;;;;;4963501;28;20074;-67
2023/04/07 05:11:47;;;;;;;41.47;23.33;;;7.60;99.90;;;;;;4992626;28;20463;-66
2023/04/07 05:14:12;;;;;;;43.42;23.60;;;7.60;99.90;;;;;;4993758;28;20070;-67
2023/04/07 05:16:38;;;;;;;38.50;22.48;;;7.60;99.90;;;;;;4990639;28;20037;-66
2023/04/07 05:19:03;;;;;;;41.28;23.08;;;7.60;99.90;;;;;;4970682;28;20030;-65
2023/04/07 05:21:29;;;;;;;37.97;22.77;;;7.60;99.90;;;;;;4993314;28;20053;-66
2023/04/07 05:23:55;;;;;;;44.45;23.70;;;7.60;99.90;;;;;;4994081;28;20038;-67
2023/04/07 05:26:20;;;;;;;41.42;22.58;;;7.60;99.90;;;;;;4974348;28;20416;-66
2023/04/07 05:28:46;;;;;;;41.10;22.52;;;7.70;99.90;;;;;;4982800;28;20401;-68
2023/04/07 05:31:12;;;;;;;40.42;23.02;;;7.60;99.90;;;;;;4972582;28;20054;-68
2023/04/07 05:33:37;;;;;;;40.08;22.55;;;7.60;99.90;;;;;;4990430;28;20382;-70
2023/04/07 05:36:03;;;;;;;37.90;22.27;;;7.60;99.90;;;;;;4982309;28;20545;-69
2023/04/07 05:38:28;;;;;;;37.38;21.85;;;7.60;99.90;;;;;;4956269;28;20042;-70
2023/04/07 05:40:54;;;;;;;40.53;22.83;;;7.60;99.90;;;;;;4961810;28;20046;-69
2023/04/07 05:43:20;;;;;;;41.70;22.00;;;7.60;99.90;;;;;;4980064;28;20042;-69
2023/04/07 05:45:46;;;;;;;41.75;23.00;;;7.60;99.90;;;;;;4957669;28;20046;-69
2023/04/07 05:48:11;;;;;;;40.55;21.98;;;7.70;99.90;;;;;;4971831;28;20042;-69
2023/04/07 05:50:37;;;;;;;40.05;23.55;;;7.60;99.90;;;;;;4953497;28;20168;-67
2023/04/07 05:53:02;;;;;;;41.05;23.15;;;7.70;99.90;;;;;;4985034;28;20488;-68
2023/04/07 05:55:28;;;;;;;39.22;22.52;;;7.70;99.90;;;;;;4969225;28;20394;-68
2023/04/07 05:57:53;;;;;;;41.05;22.95;;;7.70;99.90;;;;;;4950319;28;20089;-69
2023/04/07 06:00:19;;;;;;;40.25;23.10;;;7.70;99.90;;;;;;4973514;28;20074;-69
2023/04/07 06:02:45;;;;;;;41.28;22.23;;;7.70;99.90;;;;;;4982059;28;20030;-68
2023/04/07 06:05:11;;;;;;;43.05;23.45;;;7.70;99.90;;;;;;4989550;28;20042;-68
2023/04/07 06:07:39;;;;;;;39.63;23.02;;;7.70;99.90;;;;;;4988092;28;20596;-68
2023/04/07 06:10:05;;;;;;;46.15;23.67;;;7.70;99.90;;;;;;4968760;28;20125;-69
2023/04/07 06:12:31;;;;;;;43.13;23.15;;;7.80;99.90;;;;;;4969219;28;20125;-67
2023/04/07 06:14:57;;;;;;;43.40;23.63;;;7.80;99.90;;;;;;4966059;28;20480;-68
2023/04/07 06:17:22;;;;;;;39.80;23.38;;;7.80;99.90;;;;;;4970412;28;20453;-66
2023/04/07 06:19:48;;;;;;;39.90;23.25;;;7.80;99.90;;;;;;4962147;28;20613;-69
2023/04/07 06:22:14;;;;;;;38.13;22.35;;;7.80;99.90;;;;;;4971013;28;20405;-68
2023/04/07 06:24:39;;;;;;;38.97;22.60;;;7.90;99.90;;;;;;4988669;28;20129;-68
2023/04/07 06:27:06;;;;;;;40.30;22.98;;;7.90;99.90;;;;;;4970660;28;20032;-70
2023/04/07 06:29:32;;;;;;;43.90;23.45;;;7.90;99.90;;;;;;4981825;28;20389;-68
2023/04/07 06:31:58;;;;;;;36.95;22.13;;;7.90;99.90;;;;;;4970130;28;20575;-69
2023/04/07 06:34:24;;;;;;;37.70;21.98;;;7.90;99.90;;;;;;4985298;28;20125;-68
2023/04/07 06:36:49;;;;;;;39.30;22.13;;;7.90;99.90;;;;;;4980791;28;20038;-66
2023/04/07 06:39:15;;;;;;;37.42;22.05;;;7.90;99.90;;;;;;5008504;23;20045;-66
2023/04/07 06:41:42;;;;;;;40.85;23.13;;;7.90;99.90;;;;;;5031796;28;20434;-66
2023/04/07 06:44:10;;;;;;;37.30;21.80;;;8.00;99.90;;;;;;5011542;28;20407;-66
2023/04/07 06:46:35;;;;;;;38.15;22.27;;;8.10;99.90;;;;;;5005269;28;20557;-66
2023/04/07 06:49:01;;;;;;;39.58;22.38;;;8.10;99.90;;;;;;5017601;28;20034;-66
2023/04/07 06:51:26;;;;;;;38.75;22.13;;;8.10;99.90;;;;;;5002449;28;20041;-66
2023/04/07 06:53:52;;;;;;;39.90;22.92;;;8.20;99.90;;;;;;5004101;28;20038;-66
2023/04/07 06:56:17;;;;;;;38.40;23.63;;;8.20;99.90;;;;;;4994054;28;20369;-66
2023/04/07 06:58:43;;;;;;;42.35;22.48;;;8.30;99.90;;;;;;4993912;28;20583;-66
2023/04/07 07:01:09;;;;;;;39.67;23.95;;;8.40;99.90;;;;;;4986223;28;20568;-66
2023/04/07 07:03:34;;;;;;;39.47;23.48;;;8.40;99.90;;;;;;4987664;28;20492;-66
2023/04/07 07:06:01;;;;;;;38.58;22.70;;;8.50;99.90;;;;;;5002249;28;20092;-66
2023/04/07 07:08:27;;;;;;;40.83;23.45;;;8.50;99.90;;;;;;4997476;28;20537;-66
2023/04/07 07:10:53;;;;;;;42.17;24.05;;;8.60;99.90;;;;;;4981277;28;20042;-66
2023/04/07 07:13:25;;;;;;;40.47;23.88;;;8.50;99.90;;;;;;5010776;28;20048;-67
2023/04/07 07:15:51;;;;;;;;;;;8.60;99.90;;;;;;5008730;28;20037;-66
2023/04/07 07:18:17;;;;;;;35.33;21.63;;;8.60;99.90;;;;;;4980879;28;19928;-66
2023/04/07 07:20:42;;;;;;;40.00;23.95;;;8.60;99.90;;;;;;4995954;28;20043;-66
2023/04/07 07:23:08;;;;;;;37.95;24.30;;;8.60;99.90;;;;;;4999733;28;20033;-67
2023/04/07 07:25:34;;;;;;;40.38;23.60;;;8.70;99.90;;;;;;5003742;28;20045;-67
2023/04/07 07:28:00;;;;;;;38.22;23.67;;;8.60;99.90;;;;;;5010283;28;20034;-66
2023/04/07 07:30:25;;;;;;;37.55;23.20;;;8.70;99.90;;;;;;4993539;28;20042;-67
2023/04/07 07:32:55;;;;;;;41.10;25.00;;;8.70;99.90;;;;;;5014082;28;20488;-67
2023/04/07 07:35:21;;;;;;;37.15;23.15;;;8.70;99.90;;;;;;5003012;28;20038;-67
2023/04/07 07:37:47;;;;;;;37.92;24.08;;;8.70;99.90;;;;;;5010152;28;20535;-67
2023/04/07 07:40:13;;;;;;;35.80;22.90;;;8.70;99.90;;;;;;5013373;28;20389;-67
2023/04/07 07:42:39;;;;;;;36.95;24.08;;;8.70;99.90;;;;;;4998525;28;20033;-67
2023/04/07 07:45:05;;;;;;;39.28;24.05;;;8.70;99.90;;;;;;5007234;28;20381;-67
2023/04/07 07:47:31;;;;;;;38.42;23.73;;;8.90;99.90;;;;;;4993385;28;20038;-67
2023/04/07 07:49:56;;;;;;;38.55;24.60;;;9.00;99.90;;;;;;4996915;28;20053;-67
2023/04/07 07:52:22;;;;;;;38.40;24.05;;;9.00;99.90;;;;;;4995360;28;20050;-67
2023/04/07 07:54:49;;;;;;;37.80;24.27;;;9.10;99.90;;;;;;5010088;28;20034;-67
2023/04/07 07:57:15;;;;;;;39.63;25.27;;;9.20;99.90;;;;;;5011137;28;20042;-67
2023/04/07 07:59:40;;;;;;;33.33;22.70;;;9.30;99.90;;;;;;4990455;28;20109;-67
2023/04/07 08:02:09;;;;;;;35.83;22.90;;;9.40;99.90;;;;;;5002981;28;20046;-67
2023/04/07 08:04:35;;;;;;;35.42;22.40;;;9.50;99.90;;;;;;5008009;28;20045;-67
2023/04/07 08:07:02;;;;;;;32.05;21.05;;;9.50;99.90;;;;;;5006963;28;20137;-68
2023/04/07 08:09:27;;;;;;;34.60;23.15;;;9.50;99.90;;;;;;5010888;28;20049;-68
2023/04/07 08:11:53;;;;;;;33.35;22.52;;;9.50;99.90;;;;;;5006533;28;20053;-67
2023/04/07 08:14:19;;;;;;;39.42;22.92;;;9.50;99.90;;;;;;4991219;28;20041;-68
2023/04/07 08:16:45;;;;;;;33.00;22.05;;;9.50;99.90;;;;;;5006509;28;20033;-67
2023/04/07 08:19:12;;;;;;;36.22;24.42;;;9.50;99.90;;;;;;5008719;28;20026;-68
2023/04/07 08:21:38;;;;;;;32.80;22.70;;;9.60;99.90;;;;;;5013126;28;20034;-67
2023/04/07 08:24:04;;;;;;;34.50;23.45;;;9.60;99.90;;;;;;5004009;28;20052;-67
2023/04/07 08:26:30;;;;;;;36.33;23.85;;;9.70;99.90;;;;;;5006124;28;20388;-66
2023/04/07 08:28:57;;;;;;;36.92;24.23;;;9.70;99.90;;;;;;4991006;28;20473;-65
2023/04/07 08:31:23;;;;;;;34.35;23.75;;;9.80;99.90;;;;;;4999041;28;20511;-67
2023/04/07 08:33:52;;;;;;;33.55;22.05;;;9.80;99.90;;;;;;4983998;28;20057;-67
2023/04/07 08:36:21;;;;;;;28.52;19.27;;;9.70;99.90;;;;;;4994552;28;20041;-67
2023/04/07 08:38:46;;;;;;;27.02;18.35;;;9.70;99.90;;;;;;5011921;28;20407;-67
2023/04/07 08:41:23;;;;;;;32.03;20.67;;;9.60;99.90;;;;;;5003401;28;20045;-66
2023/04/07 08:43:50;;;;;;;23.75;15.90;;;9.70;99.90;;;;;;5006699;28;20124;-67
2023/04/07 08:46:20;;;;;;;23.65;15.77;;;9.70;99.90;;;;;;5007090;28;20045;-67
2023/04/07 08:48:50;;;;;;;21.67;15.45;;;9.80;99.90;;;;;;5003566;28;20029;-67
2023/04/07 08:51:26;;;;;;;20.42;14.13;;;9.80;99.90;;;;;;5003693;28;20538;-67
2023/04/07 08:53:53;;;;;;;20.50;14.20;;;9.90;99.90;;;;;;5013879;28;20053;-67
2023/04/07 08:56:20;;;;;;;19.55;14.38;;;10.00;99.90;;;;;;5014026;28;20108;-66
2023/04/07 08:58:47;;;;;;;19.17;14.18;;;10.00;99.90;;;;;;4994192;28;20121;-67
2023/04/07 09:01:14;;;;;;;20.65;14.65;;;10.00;99.90;;;;;;5007615;28;20053;-66
2023/04/07 09:03:43;;;;;;;20.05;13.75;;;10.00;99.90;;;;;;5012021;28;20049;-68
2023/04/07 09:06:12;;;;;;;19.67;13.07;;;10.00;99.90;;;;;;4979091;28;20034;-67
2023/04/07 09:08:38;;;;;;;19.77;14.13;;;10.00;99.90;;;;;;5005256;28;20030;-68
2023/04/07 09:11:04;;;;;;;19.77;14.55;;;10.00;99.90;;;;;;4992448;28;20381;-68
2023/04/07 09:13:30;;;;;;;20.08;14.77;;;9.90;99.90;;;;;;5000989;28;20039;-68
2023/04/07 09:15:56;;;;;;;22.02;15.90;;;9.90;99.90;;;;;;5011703;28;20046;-67
2023/04/07 09:18:22;;;;;;;23.30;16.40;;;9.90;99.90;;;;;;4994538;28;20077;-67
2023/04/07 09:20:53;;;;;;;24.83;16.55;;;9.80;99.90;;;;;;4995055;28;20118;-67
2023/04/07 09:23:31;;;;;;;25.65;17.80;;;9.80;99.90;;;;;;5001904;28;20046;-66
2023/04/07 09:26:01;;;;;;;29.38;19.00;;;9.90;99.90;;;;;;5006475;28;20070;-67
2023/04/07 09:28:42;;;;;;;30.27;20.38;;;10.00;99.90;;;;;;5009534;28;20121;-67
2023/04/07 09:31:08;;;;;;;28.63;19.67;;;10.10;99.90;;;;;;5013527;28;20038;-67
2023/04/07 09:33:35;;;;;;;35.55;23.13;;;10.20;99.90;;;;;;5008277;28;20042;-66
2023/04/07 09:36:07;;;;;;;45.97;25.20;;;10.20;99.90;;;;;;5005982;28;20076;-66
2023/04/07 09:38:36;;;;;;;74.88;31.27;;;10.30;99.90;;;;;;5012448;28;20092;-66
2023/04/07 09:41:13;;;;;;;45.78;25.38;;;10.30;99.90;;;;;;5004679;28;20038;-66
2023/04/07 09:43:40;;;;;;;32.97;22.23;;;10.40;99.90;;;;;;5001350;28;20065;-66
2023/04/07 09:46:11;;;;;;;33.78;22.48;;;10.40;99.90;;;;;;4995112;28;20041;-67
2023/04/07 09:48:37;;;;;;;32.65;22.67;;;10.50;99.90;;;;;;4995535;28;20041;-67
2023/04/07 09:51:11;;;;;;;32.42;22.13;;;10.60;99.90;;;;;;5003281;28;21199;-67
2023/04/07 09:53:48;;;;;;;35.63;23.20;;;10.60;99.90;;;;;;5011188;28;20111;-67
2023/04/07 09:56:16;;;;;;;36.60;24.10;;;10.50;99.90;;;;;;5007163;28;20056;-67
2023/04/07 09:58:46;;;;;;;35.75;23.63;;;10.50;99.90;;;;;;4994179;28;20042;-67
2023/04/07 10:01:15;;;;;;;33.70;22.63;;;10.60;99.90;;;;;;5004870;28;20033;-67
2023/04/07 10:03:41;;;;;;;32.42;22.00;;;10.60;99.90;;;;;;5004354;28;20077;-66
2023/04/07 10:06:07;;;;;;;32.88;22.17;;;10.50;99.90;;;;;;5010873;28;20257;-67
2023/04/07 10:08:35;;;;;;;34.72;23.05;;;10.60;99.90;;;;;;4993994;28;20465;-67
2023/04/07 10:11:02;;;;;;;31.08;21.73;;;10.70;99.90;;;;;;5011943;28;20455;-67
2023/04/07 10:13:29;;;;;;;28.67;19.77;;;10.80;99.90;;;;;;5009103;28;20068;-67
2023/04/07 10:15:55;;;;;;;29.60;21.05;;;11.00;99.90;;;;;;4996972;28;20034;-67
2023/04/07 10:18:24;;;;;;;26.67;19.02;;;11.10;99.90;;;;;;5009040;28;20046;-67
2023/04/07 10:20:50;;;;;;;25.83;18.52;;;11.20;99.90;;;;;;5011653;28;20061;-67
2023/04/07 10:23:23;;;;;;;23.10;17.02;;;11.30;99.90;;;;;;5011812;28;20045;-67
2023/04/07 10:25:52;;;;;;;23.08;16.92;;;11.40;99.90;;;;;;4980353;28;20109;-67
2023/04/07 10:28:20;;;;;;;22.85;17.08;;;11.40;99.90;;;;;;5008017;28;20041;-67
2023/04/07 10:30:47;;;;;;;22.20;16.95;;;11.50;99.90;;;;;;5009052;28;20053;-66
2023/04/07 10:33:13;;;;;;;19.70;14.98;;;11.40;99.90;;;;;;5004357;28;20095;-67
2023/04/07 10:36:04;;;;;;;21.40;16.25;;;11.30;99.90;;;;;;4995591;28;20137;-67
2023/04/07 10:38:31;;;;;;;21.08;15.80;;;11.30;99.90;;;;;;5002464;28;20096;-66
2023/04/07 10:40:57;;;;;;;20.85;15.82;;;11.20;99.90;;;;;;4992088;28;20293;-66
2023/04/07 10:43:40;;;;;;;21.08;15.75;;;11.00;99.90;;;;;;5010982;28;20034;-66
2023/04/07 10:46:06;;;;;;;20.65;15.80;;;10.90;99.90;;;;;;4994390;28;20041;-66
2023/04/07 10:48:32;;;;;;;22.25;16.48;;;10.90;99.90;;;;;;4998237;28;20049;-66
2023/04/07 10:51:04;;;;;;;22.33;16.40;;;10.90;99.90;;;;;;5008695;28;20133;-66
2023/04/07 10:53:30;;;;;;;20.10;15.05;;;10.90;99.90;;;;;;5011044;28;20503;-66
2023/04/07 10:55:56;;;;;;;21.17;15.48;;;10.90;99.90;;;;;;5007856;28;20125;-65
2023/04/07 10:58:27;;;;;;;20.73;15.35;;;10.90;99.90;;;;;;5005989;28;20077;-65
2023/04/07 11:01:02;;;;;;;19.15;14.77;;;10.90;99.90;;;;;;5008957;28;20041;-65
2023/04/07 11:03:30;;;;;;;18.83;14.38;;;11.00;99.90;;;;;;5010923;28;20056;-65
2023/04/07 11:06:10;;;;;;;20.13;15.55;;;11.00;99.90;;;;;;5000675;28;20404;-65
2023/04/07 11:08:41;;;;;;;20.02;15.13;;;11.10;99.90;;;;;;5009689;28;20038;-65
2023/04/07 11:11:08;;;;;;;19.92;14.75;;;11.00;99.90;;;;;;4998843;28;20120;-65
2023/04/07 11:13:50;;;;;;;19.35;15.02;;;10.90;99.90;;;;;;4999479;28;20031;-65
2023/04/07 11:16:18;;;;;;;19.27;14.52;;;10.80;99.90;;;;;;5005301;28;20503;-65
2023/04/07 11:18:47;;;;;;;19.45;13.88;;;10.80;99.90;;;;;;5009799;28;20068;-64
2023/04/07 11:21:17;;;;;;;19.02;14.10;;;10.70;99.90;;;;;;4998070;28;20464;-66
2023/04/07 11:23:44;;;;;;;18.58;14.10;;;10.80;99.90;;;;;;4998878;28;20784;-66
2023/04/07 11:26:12;;;;;;;17.50;11.98;;;10.90;99.90;;;;;;4985615;28;20374;-66
2023/04/07 11:28:57;;;;;;;17.23;12.77;;;11.00;99.90;;;;;;5008385;28;20049;-67
2023/04/07 11:31:28;;;;;;;16.35;12.18;;;11.20;99.90;;;;;;5004213;28;20161;-67
2023/04/07 11:34:00;;;;;;;16.20;12.50;;;11.10;99.90;;;;;;5003282;28;20049;-67
2023/04/07 11:36:40;;;;;;;15.00;11.05;;;11.00;99.90;;;;;;4994570;28;20038;-67
2023/04/07 11:39:20;;;;;;;16.48;10.32;;;11.00;99.90;;;;;;4998992;28;20047;-67
2023/04/07 11:41:50;;;;;;;13.82;9.82;;;10.80;99.90;;;;;;5010096;28;20046;-67
2023/04/07 11:44:15;;;;;;;15.60;10.00;;;10.70;99.90;;;;;;5005998;28;20601;-67
2023/04/07 11:46:53;;;;;;;13.95;10.32;;;10.60;99.90;;;;;;5009625;28;20507;-67
2023/04/07 11:49:19;;;;;;;13.65;10.05;;;10.60;99.90;;;;;;4992871;28;20045;-67
2023/04/07 11:51:45;;;;;;;15.60;10.40;;;10.60;99.90;;;;;;5015348;28;20037;-66
2023/04/07 11:54:11;;;;;;;14.52;10.60;;;10.70;99.90;;;;;;4999982;28;20053;-67
2023/04/07 11:56:42;;;;;;;15.50;10.80;;;10.80;99.90;;;;;;5006128;28;20100;-67
2023/04/07 11:59:08;;;;;;;13.77;10.52;;;10.90;99.90;;;;;;4994574;28;20042;-67
2023/04/07 12:01:40;;;;;;;14.18;10.07;;;10.90;99.90;;;;;;5014863;28;20500;-67
2023/04/07 12:04:11;;;;;;;15.48;10.45;;;10.90;99.90;;;;;;4987566;28;20041;-66
2023/04/07 12:06:41;;;;;;;14.90;10.30;;;10.90;99.90;;;;;;5013841;28;20129;-66
2023/04/07 12:09:08;;;;;;;15.57;10.38;;;10.90;99.90;;;;;;5013936;28;20049;-67
2023/04/07 12:11:35;;;;;;;13.73;9.90;;;10.80;99.90;;;;;;5007790;28;20046;-66
2023/04/07 12:14:03;;;;;;;16.05;10.68;;;10.80;99.90;;;;;;5005905;28;20030;-66
2023/04/07 12:16:29;;;;;;;14.13;10.05;;;10.80;99.90;;;;;;5014684;28;20070;-66
2023/04/07 12:18:56;;;;;;;15.52;11.05;;;10.70;99.90;;;;;;5014317;28;20070;-67
2023/04/07 12:21:22;;;;;;;15.27;11.15;;;10.70;99.90;;;;;;5004316;28;20081;-66
2023/04/07 12:23:48;;;;;;;13.82;9.98;;;10.70;99.90;;;;;;5013878;28;20041;-66
2023/04/07 12:26:14;;;;;;;15.80;11.20;;;10.60;99.90;;;;;;5014369;28;20038;-66
2023/04/07 12:28:39;;;;;;;14.93;11.43;;;10.60;99.90;;;;;;4998882;28;20041;-66
2023/04/07 12:31:05;;;;;;;15.20;10.73;;;10.60;99.90;;;;;;4988477;28;20395;-66
2023/04/07 12:33:31;;;;;;;14.75;11.00;;;10.60;99.90;;;;;;5006990;28;20406;-66
2023/04/07 12:35:57;;;;;;;17.23;11.15;;;10.60;99.90;;;;;;5013505;28;20408;-67
2023/04/07 12:38:23;;;;;;;17.65;10.48;;;10.60;99.90;;;;;;4992566;28;20512;-66